Time;durP1;ratioP1;P1;durP2;ratioP2;P2;SDS_P1;SDS_P2;PMS_P1;PMS_P2;Temp;Humidity;BMP_temperature;BMP_pressure;BME280_temperature;BME280_humidity;BME280_pressure;Samples;Min_cycle;Max_cycle;Signal;HPM_P1;HPM_P2
2021/11/02 00:00:04;;;;;;;6.07;3.03;;;6.30;99.90;;;;;;5081108;28;20673;-59
2021/11/02 00:02:31;;;;;;;6.53;3.10;;;6.30;99.90;;;;;;5081282;28;20044;-59
2021/11/02 00:05:00;;;;;;;6.18;3.70;;;6.20;99.90;;;;;;5079707;28;20601;-59
2021/11/02 00:07:27;;;;;;;7.18;3.45;;;6.30;99.90;;;;;;5079177;28;20565;-59
2021/11/02 00:10:01;;;;;;;8.18;3.38;;;6.20;99.90;;;;;;5081809;28;20135;-59
2021/11/02 00:12:28;;;;;;;6.35;2.63;;;6.20;99.90;;;;;;5082182;28;20102;-60
2021/11/02 00:14:55;;;;;;;6.07;2.88;;;6.20;99.90;;;;;;5080609;28;20048;-59
2021/11/02 00:17:28;;;;;;;7.32;2.10;;;6.20;99.90;;;;;;5081285;28;20044;-59
2021/11/02 00:19:58;;;;;;;6.78;2.40;;;6.10;99.90;;;;;;5078179;28;20080;-59
2021/11/02 00:22:27;;;;;;;3.53;2.30;;;6.00;99.90;;;;;;5080396;28;20606;-59
2021/11/02 00:27:21;;;;;;;4.65;1.92;;;6.00;99.90;;;;;;5081628;28;20066;-59
2021/11/02 00:29:48;;;;;;;6.07;2.40;;;5.90;99.90;;;;;;5081450;28;20083;-59
2021/11/02 00:32:15;;;;;;;4.50;2.58;;;6.00;99.90;;;;;;5081189;28;20499;-59
2021/11/02 00:34:42;;;;;;;7.13;2.55;;;5.90;99.90;;;;;;5079657;28;20123;-59
2021/11/02 00:37:09;;;;;;;7.60;2.13;;;5.90;99.90;;;;;;5081210;28;20128;-59
2021/11/02 00:39:36;;;;;;;4.40;2.53;;;5.90;99.90;;;;;;5081912;28;20170;-59
2021/11/02 00:42:02;;;;;;;4.38;1.90;;;5.90;99.90;;;;;;5059369;28;20455;-59
2021/11/02 00:44:29;;;;;;;6.00;2.20;;;5.80;99.90;;;;;;5081387;28;20048;-60
2021/11/02 00:46:56;;;;;;;4.95;1.95;;;5.80;99.90;;;;;;5081512;28;20151;-59
2021/11/02 00:49:25;;;;;;;4.55;2.15;;;5.60;99.90;;;;;;5080550;28;20040;-59
2021/11/02 00:51:52;;;;;;;6.45;2.55;;;5.60;99.90;;;;;;5064309;28;20080;-59
2021/11/02 00:54:20;;;;;;;3.67;2.03;;;5.60;99.90;;;;;;5082061;28;20533;-59
2021/11/02 00:56:47;;;;;;;5.85;2.30;;;5.60;99.90;;;;;;5081238;28;20084;-59
2021/11/02 00:59:14;;;;;;;4.13;1.90;;;5.60;99.90;;;;;;5082356;28;20102;-59
2021/11/02 01:01:40;;;;;;;6.03;2.25;;;5.60;99.90;;;;;;5080309;28;20079;-59
2021/11/02 01:04:07;;;;;;;7.05;2.90;;;5.60;99.90;;;;;;5078689;28;20040;-59
2021/11/02 01:06:36;;;;;;;2.38;1.52;;;5.50;99.90;;;;;;5081239;28;20048;-59
2021/11/02 01:09:03;;;;;;;3.38;2.00;;;5.50;99.90;;;;;;5081554;28;20123;-59
2021/11/02 01:11:32;;;;;;;4.22;2.10;;;5.40;99.90;;;;;;5081602;28;20171;-59
2021/11/02 01:13:59;;;;;;;2.72;1.70;;;5.50;99.90;;;;;;5080536;28;20145;-59
2021/11/02 01:16:28;;;;;;;4.72;2.10;;;5.40;99.90;;;;;;5083674;28;20083;-59
2021/11/02 01:18:55;;;;;;;3.45;1.80;;;5.40;99.90;;;;;;5084136;28;20417;-59
2021/11/02 01:21:22;;;;;;;3.60;2.13;;;5.40;99.90;;;;;;5084094;28;20548;-59
2021/11/02 01:23:49;;;;;;;4.97;2.25;;;5.30;99.90;;;;;;5075559;28;20571;-59
2021/11/02 01:26:16;;;;;;;6.70;1.95;;;5.20;99.90;;;;;;5085227;28;20609;-59
2021/11/02 01:28:43;;;;;;;5.75;2.08;;;5.20;99.90;;;;;;5084741;28;20076;-59
2021/11/02 01:31:09;;;;;;;5.47;2.00;;;5.20;99.90;;;;;;5084399;28;20585;-59
2021/11/02 01:33:36;;;;;;;2.97;1.73;;;5.20;99.90;;;;;;5084653;28;20055;-59
2021/11/02 01:36:03;;;;;;;3.80;1.65;;;5.20;99.90;;;;;;5084529;28;20419;-59
2021/11/02 01:38:30;;;;;;;3.75;1.70;;;5.30;99.90;;;;;;5083390;28;20126;-60
2021/11/02 01:40:57;;;;;;;3.03;1.65;;;5.20;99.90;;;;;;5061811;28;20049;-59
2021/11/02 01:43:24;;;;;;;2.92;1.55;;;5.10;99.90;;;;;;5084211;28;20067;-59
2021/11/02 01:45:50;;;;;;;4.78;2.75;;;5.20;99.90;;;;;;5084522;28;20514;-59
2021/11/02 01:48:21;;;;;;;5.00;1.75;;;5.20;99.90;;;;;;5063216;28;20050;-59
2021/11/02 01:50:48;;;;;;;3.20;1.73;;;5.10;99.90;;;;;;5080168;28;20189;-59
2021/11/02 01:53:16;;;;;;;3.30;1.20;;;5.10;99.90;;;;;;5084895;28;20091;-59
2021/11/02 01:55:47;;;;;;;5.20;2.30;;;5.00;99.90;;;;;;5085170;28;20090;-59
2021/11/02 01:58:15;;;;;;;2.95;1.75;;;5.00;99.90;;;;;;5081780;28;20508;-60
2021/11/02 02:00:45;;;;;;;4.75;1.85;;;5.00;99.90;;;;;;5079996;28;20090;-59
2021/11/02 02:03:33;;;;;;;10.10;2.75;;;5.00;99.90;;;;;;5062748;28;20044;-59
2021/11/02 02:06:23;;;;;;;6.90;1.60;;;5.00;99.90;;;;;;5080715;28;20098;-59
2021/11/02 02:09:04;;;;;;;6.35;2.00;;;4.90;99.90;;;;;;5077221;28;20079;-59
2021/11/02 02:12:03;;;;;;;4.43;1.60;;;4.90;99.90;;;;;;5081511;28;20082;-58
2021/11/02 02:14:53;;;;;;;2.80;1.25;;;4.90;99.90;;;;;;5079803;28;20044;-58
2021/11/02 02:17:28;;;;;;;3.03;1.60;;;4.80;99.90;;;;;;5079486;28;20067;-58
2021/11/02 02:20:07;;;;;;;5.45;1.60;;;4.80;99.90;;;;;;5064065;28;20063;-58
2021/11/02 02:22:45;;;;;;;3.85;1.45;;;4.80;99.90;;;;;;5079990;28;20444;-58
2021/11/02 02:25:31;;;;;;;6.72;2.08;;;4.80;99.90;;;;;;5081748;28;20142;-58
2021/11/02 02:28:20;;;;;;;3.33;2.00;;;4.80;99.90;;;;;;5082268;28;20052;-58
2021/11/02 02:30:58;;;;;;;4.72;2.42;;;4.80;99.90;;;;;;5084848;28;20048;-58
2021/11/02 02:33:28;;;;;;;6.85;2.22;;;4.70;99.90;;;;;;5077797;28;20475;-58
2021/11/02 02:35:55;;;;;;;4.72;1.58;;;4.70;99.90;;;;;;5052094;28;20099;-58
2021/11/02 02:38:23;;;;;;;4.60;1.60;;;4.70;99.90;;;;;;5085632;28;20136;-59
2021/11/02 02:40:50;;;;;;;5.05;1.60;;;4.70;99.90;;;;;;5085423;28;20098;-58
2021/11/02 02:43:18;;;;;;;3.65;1.77;;;4.70;99.90;;;;;;5068547;28;20044;-58
2021/11/02 02:45:45;;;;;;;3.00;1.38;;;4.60;99.90;;;;;;5085596;28;20079;-58
2021/11/02 02:48:12;;;;;;;3.70;1.80;;;4.60;99.90;;;;;;5068400;28;20132;-59
2021/11/02 02:50:39;;;;;;;3.97;1.63;;;4.50;99.90;;;;;;5085098;28;20047;-58
2021/11/02 02:53:06;;;;;;;3.65;1.92;;;4.50;99.90;;;;;;5085808;28;20616;-58
2021/11/02 02:55:33;;;;;;;2.92;1.98;;;4.60;99.90;;;;;;5068391;28;20055;-58
2021/11/02 02:58:00;;;;;;;2.53;1.70;;;4.50;99.90;;;;;;5085426;28;20075;-58
2021/11/02 03:00:27;;;;;;;3.10;1.17;;;4.50;99.90;;;;;;5084246;28;20131;-58
2021/11/02 03:02:54;;;;;;;4.72;1.63;;;4.50;99.90;;;;;;5085955;28;20101;-59
2021/11/02 03:05:23;;;;;;;5.40;1.50;;;4.40;99.90;;;;;;5086364;28;20101;-58
2021/11/02 03:07:54;;;;;;;3.92;1.80;;;4.40;99.90;;;;;;5084833;28;20051;-58
2021/11/02 03:10:22;;;;;;;3.20;1.73;;;4.30;99.90;;;;;;5086078;28;20044;-58
2021/11/02 03:12:50;;;;;;;4.15;1.80;;;4.30;99.90;;;;;;5085886;28;20109;-59
2021/11/02 03:15:48;;;;;;;6.63;1.70;;;4.40;99.90;;;;;;5085755;28;20411;-58
2021/11/02 03:48:52;;;;;;;1.35;0.95;;;4.30;99.90;;;;;;5082982;28;20051;-58
2021/11/02 04:24:09;;;;;;;5.07;1.42;;;4.20;99.90;;;;;;5071782;28;20277;-58
2021/11/02 06:09:18;;;;;;;3.78;1.63;;;3.60;99.90;;;;;;5082386;28;20079;-58
2021/11/02 06:28:53;;;;;;;4.40;2.38;;;3.60;99.90;;;;;;5078816;28;20148;-58
2021/11/02 06:31:26;;;;;;;6.63;2.83;;;3.50;99.90;;;;;;5079636;28;20463;-59
2021/11/02 06:36:50;;;;;;;8.77;4.00;;;3.60;99.90;;;;;;5078870;28;20083;-58
2021/11/02 06:45:24;;;;;;;6.15;3.53;;;3.60;99.90;;;;;;5078759;28;20048;-59
2021/11/02 07:18:04;;;;;;;4.82;2.45;;;3.60;99.90;;;;;;5079844;28;20476;-59
2021/11/02 07:20:59;;;;;;;5.95;3.15;;;3.60;99.90;;;;;;5078423;28;20132;-59
2021/11/02 07:23:32;;;;;;;12.10;3.47;;;3.60;99.90;;;;;;5079193;28;20101;-58
2021/11/02 08:47:06;;;;;;;7.30;3.55;;;5.80;99.90;;;;;;5077114;28;20067;-58
2021/11/02 08:49:36;;;;;;;8.02;2.65;;;6.00;99.90;;;;;;5077163;28;20048;-58
2021/11/02 08:52:03;;;;;;;8.93;3.70;;;6.10;99.90;;;;;;5076389;28;20048;-58
2021/11/02 08:54:31;;;;;;;7.20;3.33;;;6.20;99.90;;;;;;5076890;28;20052;-58
2021/11/02 08:56:58;;;;;;;6.32;3.05;;;6.30;99.90;;;;;;5039631;28;20568;-58
2021/11/02 08:59:25;;;;;;;10.40;3.40;;;6.40;99.90;;;;;;5075617;28;20866;-58
2021/11/02 09:01:58;;;;;;;5.40;3.20;;;6.50;99.90;;;;;;5076743;28;20505;-59
2021/11/02 09:04:31;;;;;;;7.97;3.08;;;6.50;99.90;;;;;;5077045;28;20052;-58
2021/11/02 09:07:03;;;;;;;8.57;3.28;;;6.70;99.90;;;;;;5073305;28;20614;-58
2021/11/02 09:09:34;;;;;;;9.65;3.80;;;6.70;99.90;;;;;;5075000;28;20613;-59
2021/11/02 09:12:04;;;;;;;6.03;3.72;;;6.80;99.90;;;;;;5060754;28;20572;-59
2021/11/02 09:14:36;;;;;;;11.07;3.33;;;6.90;99.90;;;;;;5077683;28;20111;-59
2021/11/02 09:17:07;;;;;;;6.72;2.63;;;7.00;99.90;;;;;;5077893;28;20040;-59
2021/11/02 09:19:37;;;;;;;8.10;3.75;;;7.00;99.90;;;;;;5077193;28;20154;-59
2021/11/02 09:22:05;;;;;;;6.53;3.13;;;7.10;99.90;;;;;;5079336;28;20139;-58
2021/11/02 09:24:33;;;;;;;6.10;2.85;;;7.30;99.90;;;;;;5078857;28;20123;-59
2021/11/02 09:27:01;;;;;;;7.30;2.80;;;7.30;99.90;;;;;;5078302;28;20040;-59
2021/11/02 09:29:28;;;;;;;5.60;3.00;;;7.40;99.90;;;;;;5075931;28;20109;-59
2021/11/02 09:31:56;;;;;;;9.35;3.22;;;7.50;99.90;;;;;;5076557;28;20127;-59
2021/11/02 09:34:24;;;;;;;5.90;3.30;;;7.50;99.90;;;;;;5076899;28;20044;-59
2021/11/02 09:37:27;;;;;;;6.47;3.22;;;7.60;99.90;;;;;;5077670;28;20055;-59
2021/11/02 09:39:54;;;;;;;8.30;3.08;;;7.60;99.90;;;;;;5070776;28;20147;-59
2021/11/02 09:42:40;;;;;;;6.13;2.83;;;7.60;99.90;;;;;;5065055;28;20052;-59
2021/11/02 09:45:32;;;;;;;8.60;3.28;;;7.70;99.90;;;;;;5081705;28;20063;-59
2021/11/02 09:48:20;;;;;;;12.15;3.33;;;7.80;99.90;;;;;;5082315;28;20150;-59
2021/11/02 09:51:17;;;;;;;7.75;4.00;;;7.80;99.90;;;;;;5079815;28;20509;-59
2021/11/02 09:54:20;;;;;;;6.00;2.47;;;7.90;99.90;;;;;;5080468;28;20135;-60
2021/11/02 09:57:03;;;;;;;6.85;2.65;;;7.90;99.90;;;;;;5081105;28;20486;-58
2021/11/02 10:00:13;;;;;;;9.45;3.97;;;8.00;99.90;;;;;;5078012;28;20051;-58
2021/11/02 10:03:10;;;;;;;7.82;3.10;;;8.00;99.90;;;;;;5076909;28;20550;-58
2021/11/02 10:06:10;;;;;;;9.07;4.22;;;8.00;99.90;;;;;;5066614;28;20063;-59
2021/11/02 10:08:44;;;;;;;8.63;3.13;;;8.00;99.90;;;;;;5081236;28;20151;-59
2021/11/02 10:11:24;;;;;;;5.20;2.63;;;8.20;99.90;;;;;;5082803;28;20134;-59
2021/11/02 10:14:17;;;;;;;8.88;2.80;;;8.30;99.90;;;;;;5080505;28;20347;-59
2021/11/02 10:17:01;;;;;;;10.75;4.53;;;8.30;99.90;;;;;;5082404;28;20106;-58
2021/11/02 10:20:02;;;;;;;5.70;2.90;;;8.40;99.90;;;;;;5081896;28;20109;-59
2021/11/02 10:22:49;;;;;;;7.30;3.45;;;8.40;99.90;;;;;;5082367;28;20051;-58
2021/11/02 10:25:46;;;;;;;9.52;4.55;;;8.50;99.50;;;;;;5065538;28;20139;-59
2021/11/02 10:28:54;;;;;;;8.48;3.00;;;8.50;99.60;;;;;;5062552;28;20587;-58
2021/11/02 10:31:27;;;;;;;8.02;3.15;;;8.60;99.90;;;;;;5081480;28;20135;-59
2021/11/02 10:34:11;;;;;;;7.05;2.45;;;8.70;99.90;;;;;;5078370;28;20059;-58
2021/11/02 10:37:05;;;;;;;10.63;3.35;;;8.80;99.30;;;;;;5078097;28;20068;-59
2021/11/02 10:39:42;;;;;;;5.20;2.20;;;8.80;99.30;;;;;;5081725;28;20068;-66
2021/11/02 10:42:29;;;;;;;3.45;1.98;;;8.90;98.40;;;;;;5079638;28;20066;-60
2021/11/02 10:45:17;;;;;;;4.60;1.88;;;9.00;98.20;;;;;;5073620;28;20044;-60
2021/11/02 10:48:09;;;;;;;8.65;2.75;;;9.00;98.80;;;;;;5080671;28;20733;-59
2021/11/02 10:50:46;;;;;;;7.18;2.60;;;9.10;98.40;;;;;;5080958;28;20162;-59
2021/11/02 10:53:30;;;;;;;11.02;3.83;;;9.20;98.90;;;;;;5082092;28;20099;-59
2021/11/02 10:56:11;;;;;;;7.35;2.25;;;9.20;98.70;;;;;;5067089;28;20064;-60
2021/11/02 10:58:51;;;;;;;6.18;2.75;;;9.20;97.80;;;;;;5079894;28;20044;-58
2021/11/02 11:01:18;;;;;;;4.55;2.00;;;9.30;97.50;;;;;;5080057;28;20131;-59
2021/11/02 11:03:45;;;;;;;4.30;2.65;;;9.40;98.30;;;;;;5079881;28;20671;-59
2021/11/02 11:06:13;;;;;;;8.13;1.98;;;9.50;97.40;;;;;;5045856;28;20701;-59
2021/11/02 11:08:41;;;;;;;6.68;1.88;;;9.60;97.30;;;;;;5068388;28;20048;-59
2021/11/02 11:11:09;;;;;;;3.97;2.08;;;9.70;97.50;;;;;;5079486;28;20080;-59
2021/11/02 11:13:37;;;;;;;6.95;2.20;;;9.90;97.20;;;;;;5068258;28;20052;-59
2021/11/02 11:16:17;;;;;;;4.43;2.35;;;10.00;96.30;;;;;;5081247;28;20059;-59
2021/11/02 11:18:50;;;;;;;7.53;1.75;;;10.10;96.50;;;;;;5079825;28;20079;-59
2021/11/02 11:21:17;;;;;;;3.78;1.50;;;10.20;95.40;;;;;;5080834;28;20134;-59
2021/11/02 11:23:44;;;;;;;5.88;2.03;;;10.30;95.40;;;;;;5079263;28;20048;-59
2021/11/02 11:26:11;;;;;;;5.15;2.03;;;10.50;95.90;;;;;;5062567;28;20128;-58
2021/11/02 11:28:38;;;;;;;6.85;1.80;;;10.70;95.10;;;;;;5080056;28;20171;-59
2021/11/02 11:31:05;;;;;;;4.15;1.65;;;11.00;93.90;;;;;;5079045;28;20081;-58
2021/11/02 11:33:32;;;;;;;7.10;1.85;;;11.20;93.80;;;;;;5079508;28;20455;-58
2021/11/02 11:36:01;;;;;;;3.78;1.58;;;11.50;93.10;;;;;;5080662;28;20044;-59
2021/11/02 11:38:34;;;;;;;5.68;1.80;;;11.80;94.10;;;;;;5079926;28;20048;-58
2021/11/02 11:41:06;;;;;;;6.88;1.95;;;12.00;91.80;;;;;;5078188;28;20156;-59
2021/11/02 11:43:33;;;;;;;6.80;2.10;;;12.20;91.60;;;;;;5079289;28;20202;-59
2021/11/02 11:46:04;;;;;;;4.72;1.70;;;12.40;91.50;;;;;;5079269;28;20193;-59
2021/11/02 11:48:32;;;;;;;5.28;1.55;;;12.60;91.20;;;;;;5079467;28;20048;-58
2021/11/02 11:51:01;;;;;;;7.63;1.70;;;12.80;89.10;;;;;;5080003;28;20071;-59
2021/11/02 11:53:29;;;;;;;5.35;1.65;;;13.00;88.10;;;;;;5079557;28;20048;-59
2021/11/02 11:56:17;;;;;;;3.33;1.70;;;13.30;88.70;;;;;;5077041;28;20127;-59
2021/11/02 11:58:51;;;;;;;4.55;1.70;;;13.30;83.20;;;;;;5073871;28;20486;-59
2021/11/02 12:01:19;;;;;;;4.28;1.33;;;13.40;86.00;;;;;;5077885;28;20123;-59
2021/11/02 12:04:13;;;;;;;4.30;1.50;;;13.60;84.70;;;;;;5078118;28;20091;-60
2021/11/02 12:06:49;;;;;;;5.32;2.00;;;13.70;81.10;;;;;;5078760;28;20123;-59
2021/11/02 12:09:22;;;;;;;8.18;3.42;;;13.80;83.40;;;;;;5078432;28;20127;-59
2021/11/02 12:11:49;;;;;;;6.03;2.55;;;13.60;93.70;;;;;;5078253;28;20538;-59
2021/11/02 12:14:27;;;;;;;7.82;2.50;;;13.30;88.50;;;;;;5057993;28;20105;-58
2021/11/02 12:17:05;;;;;;;4.68;2.22;;;13.00;99.90;;;;;;5074296;28;20047;-59
2021/11/02 12:19:40;;;;;;;7.45;2.35;;;12.10;99.90;;;;;;5078412;28;20392;-59
2021/11/02 12:22:13;;;;;;;5.38;1.60;;;11.50;99.90;;;;;;5078466;28;20139;-59
2021/11/02 12:24:43;;;;;;;4.35;1.50;;;11.10;99.90;;;;;;5078284;28;20555;-60
2021/11/02 12:27:19;;;;;;;3.03;1.45;;;10.90;99.90;;;;;;5079273;28;20140;-59
2021/11/02 12:29:47;;;;;;;3.90;1.40;;;10.80;99.90;;;;;;5078818;28;20136;-59
2021/11/02 12:32:17;;;;;;;3.88;1.58;;;10.80;99.90;;;;;;5078712;28;20620;-60
2021/11/02 12:34:53;;;;;;;5.60;1.50;;;10.90;99.90;;;;;;5078113;28;20132;-60
2021/11/02 12:37:20;;;;;;;3.65;1.13;;;11.10;99.90;;;;;;5077449;28;20127;-60
2021/11/02 12:39:48;;;;;;;1.75;0.82;;;11.40;99.90;;;;;;5078276;28;20165;-63
2021/11/02 12:42:20;;;;;;;1.90;0.98;;;11.70;99.90;;;;;;5078249;28;20136;-60
2021/11/02 12:44:47;;;;;;;2.83;1.40;;;11.90;99.90;;;;;;5077585;28;20113;-59
2021/11/02 12:47:15;;;;;;;3.22;1.35;;;12.20;97.50;;;;;;5079081;28;20127;-59
2021/11/02 12:49:49;;;;;;;3.63;1.35;;;12.40;97.80;;;;;;5077168;28;20056;-60
2021/11/02 12:52:18;;;;;;;3.92;1.23;;;12.80;96.00;;;;;;5077886;28;20550;-60
2021/11/02 12:55:00;;;;;;;3.47;1.25;;;12.90;95.00;;;;;;5077899;28;20079;-60
2021/11/02 12:57:35;;;;;;;2.55;0.95;;;13.10;88.10;;;;;;5078642;28;20616;-60
2021/11/02 13:00:12;;;;;;;5.32;1.83;;;13.40;88.10;;;;;;5078654;28;20136;-59
2021/11/02 13:02:42;;;;;;;12.23;2.05;;;13.80;86.20;;;;;;5075389;28;20112;-59
2021/11/02 13:05:15;;;;;;;4.97;1.08;;;14.20;90.80;;;;;;5077068;28;20515;-62
2021/11/02 13:07:43;;;;;;;4.18;1.30;;;14.50;77.90;;;;;;5076359;28;20083;-59
2021/11/02 13:10:17;;;;;;;5.55;1.25;;;14.40;78.50;;;;;;5077747;28;20168;-59
2021/11/02 13:12:48;;;;;;;3.33;1.45;;;14.50;76.10;;;;;;5077290;28;20114;-59
2021/11/02 13:15:15;;;;;;;5.82;2.03;;;14.50;79.80;;;;;;5076629;28;20238;-59
2021/11/02 13:17:44;;;;;;;4.15;1.40;;;14.60;79.40;;;;;;5078361;28;20052;-60
2021/11/02 13:20:31;;;;;;;4.68;1.17;;;14.40;76.80;;;;;;5077736;28;20075;-59
2021/11/02 13:22:58;;;;;;;4.85;1.45;;;14.40;74.90;;;;;;5077266;28;20059;-59
2021/11/02 13:25:42;;;;;;;3.53;1.15;;;14.60;78.50;;;;;;5077325;28;20051;-59
2021/11/02 13:28:10;;;;;;;3.63;1.50;;;14.70;74.90;;;;;;5072051;28;20083;-59
2021/11/02 13:30:44;;;;;;;4.03;1.10;;;15.00;77.10;;;;;;5078206;28;20087;-59
2021/11/02 13:33:23;;;;;;;3.13;1.58;;;15.10;71.00;;;;;;5077834;28;20071;-59
2021/11/02 13:36:00;;;;;;;3.40;1.10;;;15.30;72.60;;;;;;5078205;28;20645;-59
2021/11/02 13:38:34;;;;;;;2.97;1.23;;;15.50;71.00;;;;;;5076235;28;20051;-59
2021/11/02 13:41:40;;;;;;;2.85;0.93;;;15.40;70.10;;;;;;5077647;28;20048;-59
2021/11/02 13:44:08;;;;;;;5.22;1.45;;;15.60;69.10;;;;;;5076753;28;20531;-59
2021/11/02 13:46:38;;;;;;;1.92;0.93;;;15.40;70.60;;;;;;5073357;28;20084;-59
2021/11/02 13:49:05;;;;;;;5.20;1.60;;;15.30;70.00;;;;;;5075966;28;20048;-59
2021/11/02 13:51:33;;;;;;;3.58;1.38;;;15.10;69.80;;;;;;5077752;28;20072;-58
2021/11/02 13:54:00;;;;;;;4.05;1.08;;;15.00;70.80;;;;;;5077586;28;20087;-58
2021/11/02 13:56:34;;;;;;;3.30;1.38;;;15.10;70.80;;;;;;5079376;28;20040;-59
2021/11/02 13:59:01;;;;;;;4.00;1.40;;;15.10;70.70;;;;;;5078107;28;20062;-59
2021/11/02 14:01:47;;;;;;;2.08;1.10;;;15.40;69.30;;;;;;5077096;28;20078;-59
2021/11/02 14:04:32;;;;;;;9.65;1.70;;;15.90;66.00;;;;;;5056953;28;20484;-59
2021/11/02 14:07:00;;;;;;;5.38;1.02;;;16.20;65.00;;;;;;5076558;28;20151;-60
2021/11/02 14:09:32;;;;;;;5.65;1.52;;;16.50;63.30;;;;;;5077517;28;20135;-59
2021/11/02 14:12:28;;;;;;;2.83;1.05;;;16.40;63.30;;;;;;5059217;28;20075;-59
2021/11/02 14:15:42;;;;;;;3.42;1.02;;;16.70;63.30;;;;;;5077224;28;20052;-58
2021/11/02 14:18:10;;;;;;;2.55;0.98;;;17.10;60.10;;;;;;5072722;28;20576;-59
2021/11/02 14:20:38;;;;;;;5.65;1.50;;;16.90;60.30;;;;;;5077372;28;20048;-58
2021/11/02 14:23:06;;;;;;;5.25;1.60;;;16.80;64.10;;;;;;5077917;28;20113;-60
2021/11/02 14:25:35;;;;;;;8.95;2.00;;;16.90;62.00;;;;;;5079144;28;20051;-59
2021/11/02 14:28:04;;;;;;;6.20;1.70;;;16.90;61.30;;;;;;5081908;28;20082;-59
2021/11/02 14:30:30;;;;;;;2.55;1.13;;;16.90;59.40;;;;;;5080416;28;20105;-60
2021/11/02 14:33:18;;;;;;;3.40;1.23;;;17.10;63.20;;;;;;5078160;28;20193;-59
2021/11/02 14:35:49;;;;;;;3.40;1.52;;;17.50;59.00;;;;;;5078907;28;20071;-60
2021/11/02 14:38:20;;;;;;;7.00;1.70;;;17.30;59.40;;;;;;5080939;28;20040;-59
2021/11/02 14:41:19;;;;;;;1.55;1.08;;;17.10;61.00;;;;;;5079454;28;20112;-60
2021/11/02 14:43:45;;;;;;;4.38;1.42;;;16.80;59.20;;;;;;5079219;28;20173;-59
2021/11/02 14:46:20;;;;;;;1.80;1.13;;;17.00;61.60;;;;;;5077769;28;20139;-60
2021/11/02 14:48:50;;;;;;;2.72;0.98;;;16.90;58.70;;;;;;5079440;28;20051;-59
2021/11/02 14:51:17;;;;;;;4.05;1.25;;;16.80;55.90;;;;;;5081269;28;20080;-59
2021/11/02 14:53:44;;;;;;;3.10;1.30;;;16.60;57.50;;;;;;5081036;28;20496;-60
2021/11/02 14:56:12;;;;;;;5.18;1.42;;;16.50;58.90;;;;;;5075759;28;20689;-59
2021/11/02 14:58:39;;;;;;;4.40;1.17;;;16.50;59.20;;;;;;5079800;28;20148;-59
2021/11/02 15:01:07;;;;;;;2.58;0.98;;;16.40;59.70;;;;;;5080601;28;20085;-60
2021/11/02 15:03:38;;;;;;;4.03;1.30;;;16.20;59.60;;;;;;5078421;28;20097;-59
2021/11/02 15:06:12;;;;;;;5.70;1.20;;;16.20;59.70;;;;;;5078967;28;20127;-59
2021/11/02 15:08:40;;;;;;;1.80;0.77;;;16.20;58.40;;;;;;5080719;28;20051;-59
2021/11/02 15:11:10;;;;;;;3.83;1.05;;;15.90;58.40;;;;;;5078088;28;20071;-59
2021/11/02 15:13:53;;;;;;;3.95;1.63;;;15.80;59.30;;;;;;5078030;28;20135;-59
2021/11/02 15:16:20;;;;;;;3.20;1.20;;;15.70;58.00;;;;;;5081392;28;20155;-59
2021/11/02 15:18:52;;;;;;;8.02;1.40;;;15.50;61.40;;;;;;5079386;28;20048;-59
2021/11/02 15:21:30;;;;;;;3.03;1.30;;;15.40;59.00;;;;;;5079121;28;20048;-59
2021/11/02 15:23:57;;;;;;;3.05;1.10;;;15.50;60.00;;;;;;5077241;28;20076;-60
2021/11/02 15:27:04;;;;;;;2.83;0.88;;;15.50;60.60;;;;;;5078810;28;20047;-59
2021/11/02 15:29:36;;;;;;;5.38;1.40;;;15.40;60.30;;;;;;5075495;28;20560;-58
2021/11/02 15:32:09;;;;;;;3.80;1.35;;;15.40;63.30;;;;;;5077929;28;20155;-58
2021/11/02 15:34:57;;;;;;;4.78;1.10;;;15.40;62.80;;;;;;5079206;28;20079;-59
2021/11/02 15:37:25;;;;;;;4.00;1.40;;;15.20;63.80;;;;;;5077398;28;20131;-59
2021/11/02 15:39:59;;;;;;;4.97;1.73;;;15.10;66.20;;;;;;5079822;28;20132;-58
2021/11/02 15:42:41;;;;;;;3.10;1.52;;;15.10;65.40;;;;;;5078328;28;20043;-58
2021/11/02 15:45:35;;;;;;;2.95;1.40;;;15.10;67.10;;;;;;5079309;28;20073;-58
2021/11/02 15:48:08;;;;;;;7.75;1.20;;;15.00;67.90;;;;;;5074428;28;20510;-59
2021/11/02 15:50:36;;;;;;;;;;;14.90;67.70;;;;;;5079615;28;20059;-58
2021/11/02 15:53:04;;;;;;;3.80;1.40;;;14.60;70.00;;;;;;5073299;28;20524;-58
2021/11/02 15:55:31;;;;;;;3.92;1.40;;;14.50;69.00;;;;;;5079885;28;20083;-58
2021/11/02 15:58:02;;;;;;;3.80;1.15;;;14.30;69.40;;;;;;5078128;28;20071;-58
2021/11/02 16:00:36;;;;;;;7.45;1.45;;;14.10;71.50;;;;;;5077117;28;20102;-58
2021/11/02 16:03:04;;;;;;;4.70;1.17;;;13.80;74.30;;;;;;5080338;28;20132;-59
2021/11/02 16:05:32;;;;;;;2.35;1.00;;;13.40;75.20;;;;;;5074945;28;20044;-58
2021/11/02 16:08:12;;;;;;;4.10;1.20;;;13.20;76.40;;;;;;5079927;28;20139;-58
2021/11/02 16:10:39;;;;;;;5.30;1.90;;;12.90;77.50;;;;;;5079937;28;20139;-58
2021/11/02 16:13:06;;;;;;;8.98;1.77;;;12.70;80.00;;;;;;5053020;28;20237;-58
2021/11/02 16:15:34;;;;;;;3.95;1.45;;;12.50;81.00;;;;;;5077472;28;20121;-58
2021/11/02 16:18:03;;;;;;;3.65;1.40;;;12.30;78.90;;;;;;5079251;28;20126;-58
2021/11/02 16:20:34;;;;;;;5.53;1.90;;;12.10;79.90;;;;;;5078565;28;20126;-58
2021/11/02 16:23:10;;;;;;;5.53;1.67;;;11.90;84.20;;;;;;5080252;28;20592;-58
2021/11/02 16:25:59;;;;;;;5.82;1.60;;;11.70;86.40;;;;;;5066648;28;20051;-58
2021/11/02 16:28:28;;;;;;;3.90;1.40;;;11.50;84.50;;;;;;5076568;28;20684;-58
2021/11/02 16:31:02;;;;;;;7.32;1.65;;;11.40;86.80;;;;;;5076549;28;20084;-58
2021/11/02 16:33:40;;;;;;;4.32;1.50;;;11.20;86.70;;;;;;5078518;28;20096;-58
2021/11/02 16:36:29;;;;;;;10.63;2.72;;;11.00;90.40;;;;;;5072818;28;20130;-58
2021/11/02 16:39:03;;;;;;;2.45;1.33;;;10.80;92.10;;;;;;5076116;28;20044;-58
2021/11/02 16:41:51;;;;;;;3.05;1.27;;;10.60;91.70;;;;;;5076267;28;20056;-58
2021/11/02 16:44:28;;;;;;;7.43;1.52;;;10.40;92.20;;;;;;5078547;28;20107;-58
2021/11/02 16:47:06;;;;;;;3.80;1.55;;;10.20;93.90;;;;;;5074615;28;20086;-58
2021/11/02 16:49:33;;;;;;;7.43;2.40;;;10.00;94.30;;;;;;5067784;28;20080;-58
2021/11/02 16:52:09;;;;;;;8.30;1.73;;;9.80;94.30;;;;;;5076873;28;20059;-58
2021/11/02 16:54:38;;;;;;;5.22;2.40;;;9.70;94.50;;;;;;5078247;28;20474;-59
2021/11/02 16:57:27;;;;;;;5.22;1.35;;;9.60;95.30;;;;;;5077234;28;20885;-58
2021/11/02 17:00:06;;;;;;;2.78;1.50;;;9.50;96.20;;;;;;5077968;28;20168;-58
2021/11/02 17:02:39;;;;;;;7.05;1.48;;;9.40;96.00;;;;;;5073863;28;20071;-58
2021/11/02 17:05:23;;;;;;;3.42;1.77;;;9.30;96.10;;;;;;5078399;28;20047;-57
2021/11/02 17:07:52;;;;;;;9.13;4.25;;;9.20;97.70;;;;;;5078063;28;20136;-59
2021/11/02 17:10:33;;;;;;;4.75;1.90;;;9.20;97.30;;;;;;5075319;28;20077;-58
2021/11/02 17:13:13;;;;;;;3.50;1.65;;;9.10;98.30;;;;;;5074452;28;20451;-59
2021/11/02 17:15:46;;;;;;;6.20;2.08;;;8.90;97.90;;;;;;5074156;28;20055;-60
2021/11/02 17:18:16;;;;;;;6.95;3.15;;;8.80;97.90;;;;;;5075469;28;20456;-59
2021/11/02 17:20:47;;;;;;;15.15;4.50;;;8.70;97.60;;;;;;5076342;28;20550;-59
2021/11/02 17:23:20;;;;;;;9.73;4.65;;;8.60;98.80;;;;;;5074469;28;20555;-59
2021/11/02 17:25:47;;;;;;;;;;;8.50;98.60;;;;;;5077871;28;20672;-59
2021/11/02 17:28:14;;;;;;;9.43;4.32;;;8.40;99.90;;;;;;5077132;28;19969;-59
2021/11/02 17:30:40;;;;;;;6.32;4.07;;;8.40;99.80;;;;;;5076900;28;20139;-59
2021/11/02 17:33:07;;;;;;;14.80;5.85;;;8.40;98.80;;;;;;5077104;28;20046;-59
2021/11/02 17:35:34;;;;;;;8.55;4.53;;;8.40;99.90;;;;;;5076468;28;20079;-59
2021/11/02 17:38:02;;;;;;;8.77;4.07;;;8.30;99.70;;;;;;5075355;28;20853;-59
2021/11/02 17:40:29;;;;;;;7.45;3.28;;;8.20;99.20;;;;;;5074595;28;20148;-59
2021/11/02 17:43:00;;;;;;;7.00;3.40;;;8.10;99.30;;;;;;5075757;28;20056;-59
2021/11/02 17:45:28;;;;;;;5.82;3.15;;;8.00;99.30;;;;;;5076054;28;20147;-58
2021/11/02 17:47:55;;;;;;;17.48;4.35;;;7.90;99.90;;;;;;5075413;28;20083;-59
2021/11/02 17:50:27;;;;;;;9.63;4.40;;;7.80;99.90;;;;;;5073152;28;20055;-59
2021/11/02 17:52:54;;;;;;;6.45;3.88;;;7.80;99.90;;;;;;5056486;28;20135;-59
2021/11/02 17:55:21;;;;;;;9.43;4.82;;;7.80;99.90;;;;;;5073664;28;20129;-59
2021/11/02 17:57:50;;;;;;;9.73;4.13;;;7.80;99.90;;;;;;5076017;28;20076;-59
2021/11/02 18:00:19;;;;;;;8.93;3.67;;;7.80;99.90;;;;;;5078355;28;20724;-59
2021/11/02 18:02:48;;;;;;;8.32;4.57;;;7.70;99.90;;;;;;5076276;28;20125;-59
2021/11/02 18:05:16;;;;;;;9.85;4.13;;;7.60;99.90;;;;;;5077266;28;20423;-59
2021/11/02 18:07:43;;;;;;;7.07;4.20;;;7.50;99.90;;;;;;5079415;28;20494;-59
2021/11/02 18:10:12;;;;;;;10.30;3.75;;;7.50;99.90;;;;;;5078887;28;20048;-59
2021/11/02 18:12:39;;;;;;;8.38;3.58;;;7.50;99.90;;;;;;5074201;28;20044;-59
2021/11/02 18:15:07;;;;;;;9.32;4.15;;;7.40;99.90;;;;;;5078395;28;20052;-59
2021/11/02 18:17:37;;;;;;;17.15;5.28;;;7.40;99.90;;;;;;5078275;28;20483;-59
2021/11/02 18:20:04;;;;;;;11.95;6.25;;;7.30;99.90;;;;;;5078089;28;20134;-59
2021/11/02 18:22:31;;;;;;;7.57;4.53;;;7.30;99.90;;;;;;5077245;28;20472;-58
2021/11/02 18:24:58;;;;;;;10.75;4.05;;;7.20;99.90;;;;;;5078903;28;20766;-59
2021/11/02 18:27:25;;;;;;;8.07;4.22;;;7.20;99.90;;;;;;5061789;28;20075;-59
2021/11/02 18:29:52;;;;;;;7.53;4.05;;;7.20;99.90;;;;;;5079447;28;20142;-59